createdAt,value
2023-03-03T00:01:15.264Z,1.41
2023-03-03T00:03:41.765Z,1.43
2023-03-03T00:06:11.447Z,1.38
2023-03-03T00:08:38.469Z,1.42
2023-03-03T00:11:06.869Z,1.38
2023-03-03T00:13:45.142Z,1.41
2023-03-03T00:16:17.719Z,1.47
2023-03-03T00:18:46.808Z,1.46
2023-03-03T00:21:32.063Z,1.44
2023-03-03T00:24:25.804Z,1.42
2023-03-03T00:27:00.702Z,1.35
2023-03-03T00:29:40.645Z,1.36
2023-03-03T00:32:20.180Z,1.42
2023-03-03T00:34:47.187Z,1.47
2023-03-03T00:37:32.890Z,1.41
2023-03-03T00:40:22.208Z,1.31
2023-03-03T00:42:57.773Z,1.33
2023-03-03T00:45:28.884Z,1.33
2023-03-03T00:47:56.064Z,1.38
2023-03-03T00:50:35.290Z,1.47
2023-03-03T00:53:17.074Z,1.53
2023-03-03T00:55:44.012Z,1.56
2023-03-03T00:58:11.104Z,1.50
2023-03-03T01:00:37.977Z,1.45
2023-03-03T01:03:08.279Z,1.40
2023-03-03T01:05:34.949Z,1.38
2023-03-03T01:08:01.795Z,1.43
2023-03-03T01:10:30.994Z,1.48
2023-03-03T01:12:58.242Z,1.41
2023-03-03T01:15:25.004Z,1.47
2023-03-03T01:17:51.921Z,1.46
2023-03-03T01:20:19.002Z,1.52
2023-03-03T01:22:45.491Z,1.51
2023-03-03T01:25:11.949Z,1.52
2023-03-03T01:27:38.604Z,1.53
2023-03-03T01:30:06.502Z,1.52
2023-03-03T01:32:33.343Z,1.48
2023-03-03T01:35:00.026Z,1.52
2023-03-03T01:37:26.599Z,1.52
2023-03-03T01:39:54.862Z,1.54
2023-03-03T01:42:22.254Z,1.57
2023-03-03T01:44:49.502Z,1.48
2023-03-03T01:47:19.723Z,1.49
2023-03-03T01:49:58.144Z,1.49
2023-03-03T01:52:35.964Z,1.45
2023-03-03T01:55:09.990Z,1.46
2023-03-03T01:57:42.269Z,1.46
2023-03-03T02:00:10.784Z,1.52
2023-03-03T02:02:40.490Z,1.47
2023-03-03T02:05:07.560Z,1.48
2023-03-03T02:07:35.568Z,1.41
2023-03-03T02:10:13.535Z,1.35
2023-03-03T02:12:53.657Z,1.36
2023-03-03T02:15:35.964Z,1.39
2023-03-03T02:18:07.403Z,1.42
2023-03-03T02:20:55.285Z,1.42
2023-03-03T02:24:00.812Z,1.45
2023-03-03T02:26:29.401Z,1.46
2023-03-03T02:28:56.204Z,1.50
2023-03-03T02:31:25.599Z,1.48
2023-03-03T02:33:53.961Z,1.54
2023-03-03T02:36:26.537Z,1.50
2023-03-03T02:39:08.256Z,1.54
2023-03-03T02:41:34.860Z,1.50
2023-03-03T02:44:07.273Z,1.49
2023-03-03T02:46:39.263Z,1.54
2023-03-03T02:49:07.560Z,1.51
2023-03-03T02:51:34.697Z,1.55
2023-03-03T02:54:02.427Z,1.50
2023-03-03T02:56:29.340Z,1.48
2023-03-03T02:58:56.379Z,1.51
2023-03-03T03:01:23.030Z,1.54
2023-03-03T03:03:49.744Z,1.58
2023-03-03T03:06:16.219Z,1.58
2023-03-03T03:08:42.822Z,1.57
2023-03-03T03:11:09.406Z,1.56
2023-03-03T03:13:35.889Z,1.54
2023-03-03T03:16:02.515Z,1.58
2023-03-03T03:18:29.023Z,1.60
2023-03-03T03:20:55.438Z,1.59
2023-03-03T03:23:22.042Z,1.56
2023-03-03T03:25:48.739Z,1.53
2023-03-03T03:28:17.125Z,1.51
2023-03-03T03:30:44.287Z,1.44
2023-03-03T03:33:10.868Z,1.48
2023-03-03T03:35:37.884Z,1.48
2023-03-03T03:38:04.373Z,1.49
2023-03-03T03:40:30.828Z,1.52
2023-03-03T03:42:57.387Z,1.47
2023-03-03T03:45:23.932Z,1.50
2023-03-03T03:47:50.465Z,1.52
2023-03-03T03:50:16.939Z,1.46
2023-03-03T03:52:43.783Z,1.48
2023-03-03T03:55:10.618Z,1.46
2023-03-03T03:57:37.023Z,1.52
2023-03-03T04:00:05.897Z,1.47
2023-03-03T04:02:32.451Z,1.47
2023-03-03T04:04:59.062Z,1.42
2023-03-03T04:07:25.529Z,1.40
2023-03-03T04:09:52.068Z,1.38
2023-03-03T04:12:18.539Z,1.39
2023-03-03T04:14:45.097Z,1.40
2023-03-03T04:17:22.349Z,1.37
2023-03-03T04:19:48.812Z,1.36
2023-03-03T04:22:15.322Z,1.39
2023-03-03T04:24:42.000Z,1.37
2023-03-03T04:27:09.490Z,1.37
2023-03-03T04:29:36.180Z,1.44
2023-03-03T04:32:02.735Z,1.49
2023-03-03T04:34:29.236Z,1.37
2023-03-03T04:36:55.668Z,1.38
2023-03-03T04:39:22.191Z,1.29
2023-03-03T04:41:48.671Z,1.24
2023-03-03T04:44:15.457Z,1.24
2023-03-03T04:46:41.932Z,1.20
2023-03-03T04:49:09.798Z,1.23
2023-03-03T04:51:38.056Z,1.19
2023-03-03T04:54:04.723Z,1.20
2023-03-03T04:56:31.664Z,1.25
2023-03-03T04:58:58.438Z,1.30
2023-03-03T05:01:24.981Z,1.26
2023-03-03T05:03:51.579Z,1.26
2023-03-03T05:06:18.900Z,1.28
2023-03-03T05:08:46.496Z,1.31
2023-03-03T05:11:13.967Z,1.36
2023-03-03T05:13:40.468Z,1.40
2023-03-03T05:16:07.398Z,1.38
2023-03-03T05:18:33.836Z,1.31
2023-03-03T05:21:00.307Z,1.32
2023-03-03T05:23:26.755Z,1.34
2023-03-03T05:25:53.285Z,1.28
2023-03-03T05:28:19.856Z,1.29
2023-03-03T05:30:46.492Z,1.32
2023-03-03T05:33:16.321Z,1.36
2023-03-03T05:35:43.066Z,1.33
2023-03-03T05:38:09.731Z,1.31
2023-03-03T05:40:36.581Z,1.31
2023-03-03T05:43:03.259Z,1.33
2023-03-03T05:45:29.791Z,1.32
2023-03-03T05:47:56.227Z,1.28
2023-03-03T05:50:23.556Z,1.24
2023-03-03T05:52:50.761Z,1.22
2023-03-03T05:55:18.361Z,1.28
2023-03-03T05:57:45.547Z,1.31
2023-03-03T06:00:13.638Z,1.33
2023-03-03T06:02:41.651Z,1.31
2023-03-03T06:05:08.937Z,1.28
2023-03-03T06:07:35.800Z,1.27
2023-03-03T06:10:03.283Z,1.30
2023-03-03T06:12:29.756Z,1.33
2023-03-03T06:14:56.211Z,1.36
2023-03-03T06:17:22.774Z,1.32
2023-03-03T06:19:49.202Z,1.27
2023-03-03T06:22:15.651Z,1.23
2023-03-03T06:24:42.296Z,1.25
2023-03-03T06:27:09.687Z,1.30
2023-03-03T06:29:36.131Z,1.28
2023-03-03T06:32:02.997Z,1.22
2023-03-03T06:34:29.631Z,1.22
2023-03-03T06:36:57.065Z,1.23
2023-03-03T06:39:23.523Z,1.20
2023-03-03T06:41:50.022Z,1.17
2023-03-03T06:44:16.644Z,1.17
2023-03-03T06:46:43.079Z,1.21
2023-03-03T06:49:09.579Z,1.19
2023-03-03T06:51:40.677Z,1.17
2023-03-03T06:54:12.766Z,1.19
2023-03-03T06:56:39.933Z,1.18
2023-03-03T06:59:13.025Z,1.23
2023-03-03T07:01:39.774Z,1.22
2023-03-03T07:04:33.766Z,1.22
2023-03-03T07:07:15.183Z,1.27
2023-03-03T07:09:44.910Z,1.33
2023-03-03T07:12:15.386Z,1.31
2023-03-03T07:15:07.280Z,1.30
2023-03-03T07:17:34.618Z,1.34
2023-03-03T07:20:01.734Z,1.34
2023-03-03T07:22:30.204Z,1.32
2023-03-03T07:25:01.944Z,1.31
2023-03-03T07:27:31.101Z,1.32
2023-03-03T07:30:16.408Z,1.35
2023-03-03T07:32:45.427Z,1.38
2023-03-03T07:35:39.118Z,1.39
2023-03-03T07:38:37.251Z,1.44
2023-03-03T07:41:10.736Z,1.50
2023-03-03T07:43:47.633Z,1.50
2023-03-03T07:46:23.082Z,1.53
2023-03-03T07:48:50.721Z,1.54
2023-03-03T07:51:23.268Z,1.54
2023-03-03T07:53:49.777Z,1.54
2023-03-03T07:56:34.184Z,1.57
2023-03-03T07:59:07.886Z,1.63
2023-03-03T08:01:40.464Z,1.61
2023-03-03T08:04:52.779Z,1.61
2023-03-03T08:07:21.969Z,1.60
2023-03-03T08:09:51.934Z,1.61
2023-03-03T08:12:20.265Z,1.55
2023-03-03T08:14:47.134Z,1.54
2023-03-03T08:17:23.919Z,1.50
2023-03-03T08:19:52.872Z,1.57
2023-03-03T08:22:30.314Z,1.54
2023-03-03T08:24:56.845Z,1.55
2023-03-03T08:27:23.289Z,1.52
2023-03-03T08:29:50.123Z,1.56
2023-03-03T08:32:16.669Z,1.57
2023-03-03T08:34:43.137Z,1.59
2023-03-03T08:37:09.690Z,1.57
2023-03-03T08:39:36.165Z,1.58
2023-03-03T08:42:02.827Z,1.56
2023-03-03T08:44:29.317Z,1.51
2023-03-03T08:46:55.860Z,1.50
2023-03-03T08:49:22.338Z,1.48
2023-03-03T08:51:48.789Z,1.54
2023-03-03T08:54:15.265Z,1.61
2023-03-03T08:56:41.763Z,1.59
2023-03-03T08:59:08.209Z,1.63
2023-03-03T09:01:34.992Z,1.50
2023-03-03T09:04:01.486Z,1.59
2023-03-03T09:06:28.069Z,1.58
2023-03-03T09:08:55.056Z,1.62
2023-03-03T09:11:27.974Z,1.60
2023-03-03T09:14:16.036Z,1.63
2023-03-03T09:16:50.118Z,1.65
2023-03-03T09:19:30.743Z,1.76
2023-03-03T09:22:03.168Z,1.66
2023-03-03T09:24:31.334Z,1.67
2023-03-03T09:26:59.011Z,1.68
2023-03-03T09:29:31.823Z,1.61
2023-03-03T09:32:08.701Z,1.57
2023-03-03T09:34:43.042Z,1.58
2023-03-03T09:37:33.762Z,1.56
2023-03-03T09:40:00.262Z,1.67
2023-03-03T09:43:00.657Z,1.65
2023-03-03T09:45:46.006Z,1.58
2023-03-03T09:48:57.588Z,1.59
2023-03-03T09:51:51.651Z,1.67
2023-03-03T09:54:40.431Z,1.75
2023-03-03T09:57:27.442Z,1.76
2023-03-03T09:59:59.953Z,1.75
2023-03-03T10:02:38.193Z,1.81
2023-03-03T10:05:48.697Z,1.82
2023-03-03T10:08:52.070Z,1.88
2023-03-03T10:11:48.800Z,1.99
2023-03-03T10:14:46.787Z,1.99
2023-03-03T10:17:47.537Z,2.05
2023-03-03T10:20:53.513Z,2.05
2023-03-03T10:23:29.381Z,2.10
2023-03-03T10:26:34.705Z,2.18
2023-03-03T10:29:22.377Z,2.24
2023-03-03T10:32:18.567Z,2.34
2023-03-03T10:34:54.396Z,2.31
2023-03-03T10:37:48.632Z,2.31
2023-03-03T10:40:38.640Z,2.30
2023-03-03T10:43:31.767Z,2.37
2023-03-03T10:46:32.792Z,2.41
2023-03-03T10:49:14.727Z,2.48
2023-03-03T10:51:52.996Z,2.54
2023-03-03T10:54:31.479Z,2.60
2023-03-03T10:57:25.937Z,2.55
2023-03-03T11:00:08.166Z,2.54
2023-03-03T11:03:05.311Z,2.52
2023-03-03T11:06:01.341Z,2.46
2023-03-03T11:08:53.868Z,2.45
2023-03-03T11:11:25.699Z,2.45
2023-03-03T11:14:02.243Z,2.57
2023-03-03T11:16:42.186Z,2.61
2023-03-03T11:19:39.062Z,2.79
2023-03-03T11:22:42.956Z,2.84
2023-03-03T11:25:27.614Z,2.76
2023-03-03T11:27:59.844Z,2.77
2023-03-03T11:30:45.248Z,2.86
2023-03-03T11:33:36.291Z,2.94
2023-03-03T11:36:17.909Z,3.06
2023-03-03T11:38:56.850Z,3.19
2023-03-03T11:41:30.732Z,3.17
2023-03-03T11:44:06.043Z,2.88
2023-03-03T11:46:43.810Z,2.92
2023-03-03T11:49:19.477Z,2.97
2023-03-03T11:52:07.048Z,3.01
2023-03-03T11:55:06.057Z,3.16
2023-03-03T11:57:54.430Z,3.20
2023-03-03T12:00:39.095Z,3.29
2023-03-03T12:03:30.046Z,3.22
2023-03-03T12:06:05.598Z,3.22
2023-03-03T12:08:34.870Z,3.15
2023-03-03T12:11:23.046Z,3.17
2023-03-03T12:14:46.402Z,3.12
2023-03-03T12:17:41.656Z,3.35
2023-03-03T12:20:11.048Z,3.51
2023-03-03T12:23:18.010Z,3.54
2023-03-03T12:26:02.346Z,3.44
2023-03-03T12:28:36.896Z,3.36
2023-03-03T12:31:22.668Z,3.44
2023-03-03T12:34:17.217Z,3.54
2023-03-03T12:36:55.672Z,3.59
2023-03-03T12:39:46.314Z,3.35
2023-03-03T12:42:22.103Z,3.06
2023-03-03T12:45:07.356Z,3.19
2023-03-03T12:47:41.677Z,3.32
2023-03-03T12:50:46.344Z,3.39
2023-03-03T12:53:34.596Z,3.50
2023-03-03T12:56:07.902Z,3.56
2023-03-03T12:58:56.906Z,3.66
2023-03-03T13:01:32.517Z,3.53
2023-03-03T13:04:20.719Z,3.49
2023-03-03T13:07:11.686Z,3.49
2023-03-03T13:10:02.775Z,3.44
2023-03-03T13:12:47.773Z,3.38
2023-03-03T13:15:38.145Z,3.40
2023-03-03T13:18:20.143Z,3.36
2023-03-03T13:20:53.833Z,3.33
2023-03-03T13:23:41.526Z,3.35
2023-03-03T13:26:17.123Z,3.40
2023-03-03T13:29:18.815Z,3.43
2023-03-03T13:31:51.953Z,3.56
2023-03-03T13:34:29.498Z,3.54
2023-03-03T13:37:03.089Z,3.61
2023-03-03T13:39:39.865Z,3.68
2023-03-03T13:42:22.495Z,4.00
2023-03-03T13:44:50.898Z,4.01
2023-03-03T13:47:41.478Z,4.00
2023-03-03T13:50:21.412Z,4.28
2023-03-03T13:53:32.031Z,4.41
2023-03-03T13:56:35.780Z,4.34
2023-03-03T13:59:10.009Z,4.31
2023-03-03T14:02:15.375Z,4.27
2023-03-03T14:04:57.410Z,4.28
2023-03-03T14:07:42.137Z,4.29
2023-03-03T14:10:10.956Z,4.13
2023-03-03T14:12:37.407Z,4.09
2023-03-03T14:15:22.017Z,3.97
2023-03-03T14:18:05.430Z,4.18
2023-03-03T14:20:37.794Z,4.24
2023-03-03T14:23:13.383Z,4.14
2023-03-03T14:26:04.651Z,4.16
2023-03-03T14:28:40.405Z,4.16
2023-03-03T14:31:28.969Z,4.32
2023-03-03T14:34:20.464Z,4.52
2023-03-03T14:36:46.944Z,4.77
2023-03-03T14:39:35.153Z,4.49
2023-03-03T14:42:05.460Z,4.41
2023-03-03T14:44:38.660Z,4.33
2023-03-03T14:47:11.256Z,4.05
2023-03-03T14:49:39.995Z,4.18
2023-03-03T14:52:15.809Z,4.46
2023-03-03T14:54:47.877Z,4.73
2023-03-03T14:57:51.236Z,4.77
2023-03-03T15:00:24.136Z,4.86
2023-03-03T15:03:27.693Z,4.80
2023-03-03T15:05:58.086Z,4.82
2023-03-03T15:08:36.151Z,4.85
2023-03-03T15:11:36.414Z,4.85
2023-03-03T15:14:16.179Z,4.80
2023-03-03T15:16:45.834Z,4.81
2023-03-03T15:19:33.518Z,4.82
2023-03-03T15:22:11.984Z,4.79
2023-03-03T15:24:50.341Z,4.82
2023-03-03T15:27:28.543Z,4.79
2023-03-03T15:30:18.550Z,4.81
2023-03-03T15:32:53.186Z,4.80
2023-03-03T15:35:28.955Z,4.72
2023-03-03T15:38:11.071Z,4.69
2023-03-03T15:41:03.245Z,4.76
2023-03-03T15:43:44.250Z,4.79
2023-03-03T15:46:44.053Z,4.76
2023-03-03T15:49:48.099Z,4.70
2023-03-03T15:52:22.766Z,4.68
2023-03-03T15:55:06.244Z,4.69
2023-03-03T15:57:56.334Z,4.72
2023-03-03T16:00:36.769Z,4.69
2023-03-03T16:03:21.676Z,4.69
2023-03-03T16:06:15.513Z,4.66
2023-03-03T16:08:56.427Z,4.63
2023-03-03T16:11:39.963Z,4.64
2023-03-03T16:14:36.163Z,4.62
2023-03-03T16:17:26.372Z,4.60
2023-03-03T16:20:01.912Z,4.57
2023-03-03T16:22:49.727Z,4.52
2023-03-03T16:25:22.155Z,4.48
2023-03-03T16:28:19.563Z,4.47
2023-03-03T16:31:20.024Z,4.47
2023-03-03T16:34:00.575Z,4.46
2023-03-03T16:37:01.829Z,4.46
2023-03-03T16:39:53.382Z,4.44
2023-03-03T16:42:26.502Z,4.40
2023-03-03T16:45:05.149Z,4.37
2023-03-03T16:47:44.051Z,4.36
2023-03-03T16:50:21.023Z,4.31
2023-03-03T16:53:01.281Z,4.29
2023-03-03T16:55:35.466Z,4.26
2023-03-03T16:58:19.182Z,4.22
2023-03-03T17:01:04.316Z,4.19
2023-03-03T17:03:45.696Z,4.16
2023-03-03T17:06:35.183Z,4.12
2023-03-03T17:09:32.862Z,4.04
2023-03-03T17:12:02.883Z,3.97
2023-03-03T17:14:40.002Z,3.92
2023-03-03T17:17:37.724Z,3.86
2023-03-03T17:20:29.226Z,3.81
2023-03-03T17:23:14.054Z,3.74
2023-03-03T17:25:52.537Z,3.72
2023-03-03T17:28:18.933Z,3.66
2023-03-03T17:31:07.442Z,3.63
2023-03-03T17:33:58.831Z,3.56
2023-03-03T17:36:45.916Z,3.54
2023-03-03T17:39:24.478Z,3.39
2023-03-03T17:42:09.447Z,3.30
2023-03-03T17:44:35.787Z,3.30
2023-03-03T17:47:09.146Z,3.24
2023-03-03T17:50:01.140Z,3.17
2023-03-03T17:53:05.381Z,2.97
2023-03-03T17:55:34.882Z,2.96
2023-03-03T17:58:20.177Z,2.93
2023-03-03T18:01:08.976Z,2.87
2023-03-03T18:03:53.960Z,2.82
2023-03-03T18:06:48.268Z,2.71
2023-03-03T18:09:47.593Z,2.60
2023-03-03T18:12:45.042Z,2.54
2023-03-03T18:15:23.872Z,2.58
2023-03-03T18:18:15.274Z,2.62
2023-03-03T18:20:58.397Z,2.63
2023-03-03T18:23:27.930Z,2.55
2023-03-03T18:26:04.235Z,2.35
2023-03-03T18:28:51.362Z,2.27
2023-03-03T18:31:26.731Z,2.23
2023-03-03T18:34:21.241Z,2.15
2023-03-03T18:36:57.371Z,1.99
2023-03-03T18:39:39.154Z,1.96
2023-03-03T18:42:30.470Z,1.82
2023-03-03T18:45:00.710Z,1.82
2023-03-03T18:48:05.091Z,1.82
2023-03-03T18:50:34.368Z,1.84
2023-03-03T18:53:19.825Z,1.86
2023-03-03T18:55:50.899Z,1.85
2023-03-03T18:58:17.340Z,1.86
2023-03-03T19:00:59.752Z,1.86
2023-03-03T19:03:38.184Z,1.93
2023-03-03T19:06:08.539Z,1.99
2023-03-03T19:08:58.704Z,2.06
2023-03-03T19:11:42.096Z,1.86
2023-03-03T19:14:26.431Z,1.83
2023-03-03T19:16:54.307Z,1.78
2023-03-03T19:19:24.619Z,1.79
2023-03-03T19:22:27.367Z,1.67
2023-03-03T19:25:09.232Z,1.70
2023-03-03T19:27:59.755Z,1.72
2023-03-03T19:30:52.995Z,1.73
2023-03-03T19:33:25.049Z,1.68
2023-03-03T19:36:03.536Z,1.65
2023-03-03T19:38:51.421Z,1.65
2023-03-03T19:41:39.686Z,1.50
2023-03-03T19:44:48.383Z,1.54
2023-03-03T19:47:24.052Z,1.68
2023-03-03T19:50:00.720Z,1.77
2023-03-03T19:52:38.947Z,1.82
2023-03-03T19:55:11.561Z,1.84
2023-03-03T19:57:48.876Z,1.87
2023-03-03T20:00:21.366Z,1.96
2023-03-03T20:03:21.180Z,2.05
2023-03-03T20:06:08.367Z,2.15
2023-03-03T20:08:57.577Z,2.18
2023-03-03T20:11:33.076Z,2.24
2023-03-03T20:14:07.861Z,2.21
2023-03-03T20:16:41.394Z,2.19
2023-03-03T20:19:42.203Z,2.22
2023-03-03T20:22:17.933Z,2.16
2023-03-03T20:25:22.061Z,2.08
2023-03-03T20:28:22.623Z,2.14
2023-03-03T20:30:58.163Z,2.20
2023-03-03T20:34:01.688Z,2.20
2023-03-03T20:36:45.443Z,2.24
2023-03-03T20:39:49.416Z,2.30
2023-03-03T20:42:28.025Z,2.28
2023-03-03T20:45:14.768Z,2.31
2023-03-03T20:47:59.562Z,2.33
2023-03-03T20:50:37.419Z,2.37
2023-03-03T20:53:05.038Z,2.40
2023-03-03T20:55:44.418Z,2.32
2023-03-03T20:58:13.843Z,2.30
2023-03-03T21:00:58.362Z,2.30
2023-03-03T21:03:25.095Z,2.29
2023-03-03T21:05:58.046Z,2.35
2023-03-03T21:08:48.397Z,2.32
2023-03-03T21:11:17.580Z,2.37
2023-03-03T21:13:57.058Z,2.41
2023-03-03T21:16:23.539Z,2.32
2023-03-03T21:19:03.295Z,2.35
2023-03-03T21:21:33.007Z,2.43
2023-03-03T21:23:59.546Z,2.49
2023-03-03T21:26:55.964Z,2.48
2023-03-03T21:29:35.921Z,2.52
2023-03-03T21:32:08.029Z,2.54
2023-03-03T21:34:41.297Z,2.43
2023-03-03T21:37:11.008Z,2.39
2023-03-03T21:39:40.148Z,2.45
2023-03-03T21:42:09.611Z,2.42
2023-03-03T21:44:39.017Z,2.46
2023-03-03T21:47:07.362Z,2.47
2023-03-03T21:49:34.494Z,2.46
2023-03-03T21:52:01.297Z,2.47
2023-03-03T21:54:27.998Z,2.51
2023-03-03T21:56:54.540Z,2.53
2023-03-03T21:59:21.032Z,2.54
2023-03-03T22:01:47.576Z,2.57
2023-03-03T22:04:14.702Z,2.55
2023-03-03T22:06:41.268Z,2.57
2023-03-03T22:09:08.484Z,2.55
2023-03-03T22:11:35.240Z,2.58
2023-03-03T22:14:01.935Z,2.58
2023-03-03T22:16:28.459Z,2.58
2023-03-03T22:18:54.970Z,2.56
2023-03-03T22:21:21.941Z,2.52
2023-03-03T22:23:48.381Z,2.54
2023-03-03T22:26:14.920Z,2.58
2023-03-03T22:28:43.890Z,2.62
2023-03-03T22:31:10.797Z,2.60
2023-03-03T22:33:37.259Z,2.53
2023-03-03T22:36:04.029Z,2.53
2023-03-03T22:38:30.523Z,2.52
2023-03-03T22:40:57.000Z,2.54
2023-03-03T22:43:23.509Z,2.52
2023-03-03T22:45:50.464Z,2.53
2023-03-03T22:48:17.020Z,2.53
2023-03-03T22:50:45.412Z,2.50
2023-03-03T22:53:11.894Z,2.51
2023-03-03T22:55:38.378Z,2.55
2023-03-03T22:58:06.046Z,2.53
2023-03-03T23:00:34.405Z,2.55
2023-03-03T23:03:01.029Z,2.58
2023-03-03T23:05:27.525Z,2.56
2023-03-03T23:07:54.075Z,2.59
2023-03-03T23:10:20.666Z,2.61
2023-03-03T23:12:47.151Z,2.61
2023-03-03T23:15:14.899Z,2.63
2023-03-03T23:17:45.426Z,2.63
2023-03-03T23:20:19.986Z,2.62
2023-03-03T23:22:46.529Z,2.62
2023-03-03T23:25:14.502Z,2.61
2023-03-03T23:27:42.668Z,2.65
2023-03-03T23:30:11.398Z,2.68
2023-03-03T23:32:37.939Z,2.69
2023-03-03T23:35:05.471Z,2.70
2023-03-03T23:37:32.310Z,2.71
2023-03-03T23:39:58.750Z,2.72
2023-03-03T23:42:25.988Z,2.70
2023-03-03T23:44:52.539Z,2.71
2023-03-03T23:47:22.017Z,2.73
2023-03-03T23:49:48.497Z,2.71
2023-03-03T23:52:15.117Z,2.73
2023-03-03T23:54:41.576Z,2.75
2023-03-03T23:57:08.748Z,2.77
2023-03-03T23:59:37.540Z,2.76
